sensor_id;sensor_type;location;lat;lon;timestamp;temperature;humidity
48264;DHT22;34086;51.076;13.722;2024-03-22T00:00:00;9.30;99.90
48264;DHT22;34086;51.076;13.722;2024-03-22T00:01:01;9.30;99.90
48264;DHT22;34086;51.076;13.722;2024-03-22T00:02:01;9.30;99.90
48264;DHT22;34086;51.076;13.722;2024-03-22T00:03:02;9.30;99.90
48264;DHT22;34086;51.076;13.722;2024-03-22T00:04:02;9.30;99.90
48264;DHT22;34086;51.076;13.722;2024-03-22T00:05:03;9.30;99.90
48264;DHT22;34086;51.076;13.722;2024-03-22T00:06:04;9.30;99.90
48264;DHT22;34086;51.076;13.722;2024-03-22T00:07:05;9.30;99.90
48264;DHT22;34086;51.076;13.722;2024-03-22T00:08:05;9.30;99.90
48264;DHT22;34086;51.076;13.722;2024-03-22T00:09:06;9.30;99.90
48264;DHT22;34086;51.076;13.722;2024-03-22T00:10:06;9.30;99.90
48264;DHT22;34086;51.076;13.722;2024-03-22T00:11:07;9.30;99.90
48264;DHT22;34086;51.076;13.722;2024-03-22T00:12:07;9.30;99.90
48264;DHT22;34086;51.076;13.722;2024-03-22T00:13:08;9.30;99.90
48264;DHT22;34086;51.076;13.722;2024-03-22T00:14:09;9.30;99.90
48264;DHT22;34086;51.076;13.722;2024-03-22T00:15:09;9.30;99.90
48264;DHT22;34086;51.076;13.722;2024-03-22T00:16:10;9.40;99.90
48264;DHT22;34086;51.076;13.722;2024-03-22T00:17:10;9.30;99.90
48264;DHT22;34086;51.076;13.722;2024-03-22T00:18:11;9.30;99.90
48264;DHT22;34086;51.076;13.722;2024-03-22T00:19:11;9.30;99.90
48264;DHT22;34086;51.076;13.722;2024-03-22T00:20:12;9.30;99.90
48264;DHT22;34086;51.076;13.722;2024-03-22T00:21:12;9.30;99.90
48264;DHT22;34086;51.076;13.722;2024-03-22T00:22:13;9.30;99.90
48264;DHT22;34086;51.076;13.722;2024-03-22T00:23:13;9.30;99.90
48264;DHT22;34086;51.076;13.722;2024-03-22T00:24:14;9.30;99.90
48264;DHT22;34086;51.076;13.722;2024-03-22T00:25:14;9.40;99.90
48264;DHT22;34086;51.076;13.722;2024-03-22T00:26:15;9.40;99.90
48264;DHT22;34086;51.076;13.722;2024-03-22T00:27:15;9.30;99.90
48264;DHT22;34086;51.076;13.722;2024-03-22T00:28:16;9.30;99.90
48264;DHT22;34086;51.076;13.722;2024-03-22T00:29:16;9.30;99.90
48264;DHT22;34086;51.076;13.722;2024-03-22T00:30:17;9.30;99.90
48264;DHT22;34086;51.076;13.722;2024-03-22T00:31:18;9.30;99.90
48264;DHT22;34086;51.076;13.722;2024-03-22T00:32:18;9.30;99.90
48264;DHT22;34086;51.076;13.722;2024-03-22T00:33:19;9.30;99.90
48264;DHT22;34086;51.076;13.722;2024-03-22T00:34:19;9.30;99.90
48264;DHT22;34086;51.076;13.722;2024-03-22T00:35:20;9.30;99.90
48264;DHT22;34086;51.076;13.722;2024-03-22T00:36:20;9.30;99.90
48264;DHT22;34086;51.076;13.722;2024-03-22T00:37:21;9.30;99.90
48264;DHT22;34086;51.076;13.722;2024-03-22T00:38:21;9.30;99.90
48264;DHT22;34086;51.076;13.722;2024-03-22T00:39:22;9.30;99.90
48264;DHT22;34086;51.076;13.722;2024-03-22T00:40:22;9.30;99.90
48264;DHT22;34086;51.076;13.722;2024-03-22T00:41:22;9.30;99.90
48264;DHT22;34086;51.076;13.722;2024-03-22T00:42:23;9.30;99.90
48264;DHT22;34086;51.076;13.722;2024-03-22T00:43:23;9.30;99.90
48264;DHT22;34086;51.076;13.722;2024-03-22T00:44:24;9.30;99.90
48264;DHT22;34086;51.076;13.722;2024-03-22T00:45:25;9.30;99.90
48264;DHT22;34086;51.076;13.722;2024-03-22T00:46:25;9.40;99.90
48264;DHT22;34086;51.076;13.722;2024-03-22T00:47:25;9.40;99.90
48264;DHT22;34086;51.076;13.722;2024-03-22T00:48:26;9.30;99.90
48264;DHT22;34086;51.076;13.722;2024-03-22T00:49:26;9.30;99.90
48264;DHT22;34086;51.076;13.722;2024-03-22T00:50:27;9.30;99.90
48264;DHT22;34086;51.076;13.722;2024-03-22T00:51:28;9.30;99.90
48264;DHT22;34086;51.076;13.722;2024-03-22T00:52:28;9.30;99.90
48264;DHT22;34086;51.076;13.722;2024-03-22T00:53:29;9.30;99.90
48264;DHT22;34086;51.076;13.722;2024-03-22T00:54:30;9.30;99.90
48264;DHT22;34086;51.076;13.722;2024-03-22T00:55:30;9.30;99.90
48264;DHT22;34086;51.076;13.722;2024-03-22T00:56:31;9.30;99.90
48264;DHT22;34086;51.076;13.722;2024-03-22T00:57:31;9.30;99.90
48264;DHT22;34086;51.076;13.722;2024-03-22T00:58:32;9.30;99.90
48264;DHT22;34086;51.076;13.722;2024-03-22T00:59:33;9.30;99.90
48264;DHT22;34086;51.076;13.722;2024-03-22T01:00:33;9.30;99.90
48264;DHT22;34086;51.076;13.722;2024-03-22T01:01:34;9.30;99.90
48264;DHT22;34086;51.076;13.722;2024-03-22T01:02:35;9.30;99.90
48264;DHT22;34086;51.076;13.722;2024-03-22T01:03:35;9.30;99.90
48264;DHT22;34086;51.076;13.722;2024-03-22T01:04:36;9.40;99.90
48264;DHT22;34086;51.076;13.722;2024-03-22T01:05:36;9.40;99.90
48264;DHT22;34086;51.076;13.722;2024-03-22T01:06:37;9.30;99.90
48264;DHT22;34086;51.076;13.722;2024-03-22T01:07:37;9.30;99.90
48264;DHT22;34086;51.076;13.722;2024-03-22T01:08:38;9.30;99.90
48264;DHT22;34086;51.076;13.722;2024-03-22T01:09:38;9.50;99.90
48264;DHT22;34086;51.076;13.722;2024-03-22T01:10:39;9.50;99.90
48264;DHT22;34086;51.076;13.722;2024-03-22T01:11:40;9.40;99.90
48264;DHT22;34086;51.076;13.722;2024-03-22T01:12:40;9.40;99.90
48264;DHT22;34086;51.076;13.722;2024-03-22T01:13:41;9.40;99.90
48264;DHT22;34086;51.076;13.722;2024-03-22T01:14:41;9.30;99.90
48264;DHT22;34086;51.076;13.722;2024-03-22T01:15:42;9.30;99.90
48264;DHT22;34086;51.076;13.722;2024-03-22T01:16:43;9.30;99.90
48264;DHT22;34086;51.076;13.722;2024-03-22T01:17:43;9.30;99.90
48264;DHT22;34086;51.076;13.722;2024-03-22T01:18:44;9.30;99.90
48264;DHT22;34086;51.076;13.722;2024-03-22T01:19:44;9.30;99.90
48264;DHT22;34086;51.076;13.722;2024-03-22T01:20:45;9.20;99.90
48264;DHT22;34086;51.076;13.722;2024-03-22T01:21:46;9.20;99.90
48264;DHT22;34086;51.076;13.722;2024-03-22T01:22:47;9.20;99.90
48264;DHT22;34086;51.076;13.722;2024-03-22T01:23:47;9.20;99.90
48264;DHT22;34086;51.076;13.722;2024-03-22T01:24:47;9.20;99.90
48264;DHT22;34086;51.076;13.722;2024-03-22T01:25:48;9.20;99.90
48264;DHT22;34086;51.076;13.722;2024-03-22T01:26:48;9.10;99.90
48264;DHT22;34086;51.076;13.722;2024-03-22T01:27:49;9.10;99.90
48264;DHT22;34086;51.076;13.722;2024-03-22T01:28:49;9.10;99.90
48264;DHT22;34086;51.076;13.722;2024-03-22T01:29:50;9.00;99.90
48264;DHT22;34086;51.076;13.722;2024-03-22T01:30:50;9.10;99.90
48264;DHT22;34086;51.076;13.722;2024-03-22T01:31:51;9.00;99.90
48264;DHT22;34086;51.076;13.722;2024-03-22T01:32:51;9.00;99.90
48264;DHT22;34086;51.076;13.722;2024-03-22T01:33:52;9.00;99.90
48264;DHT22;34086;51.076;13.722;2024-03-22T01:34:52;9.00;99.90
48264;DHT22;34086;51.076;13.722;2024-03-22T01:35:53;9.00;99.90
48264;DHT22;34086;51.076;13.722;2024-03-22T01:36:53;9.00;99.90
48264;DHT22;34086;51.076;13.722;2024-03-22T01:37:54;9.10;99.90
48264;DHT22;34086;51.076;13.722;2024-03-22T01:38:54;9.00;99.90
48264;DHT22;34086;51.076;13.722;2024-03-22T01:39:55;9.10;99.90
48264;DHT22;34086;51.076;13.722;2024-03-22T01:40:55;9.10;99.90
48264;DHT22;34086;51.076;13.722;2024-03-22T01:41:56;9.00;99.90
48264;DHT22;34086;51.076;13.722;2024-03-22T01:42:56;9.00;99.90
48264;DHT22;34086;51.076;13.722;2024-03-22T01:43:57;9.00;99.90
48264;DHT22;34086;51.076;13.722;2024-03-22T01:44:58;9.00;99.90
48264;DHT22;34086;51.076;13.722;2024-03-22T01:45:58;9.00;99.90
48264;DHT22;34086;51.076;13.722;2024-03-22T01:46:59;9.00;99.90
48264;DHT22;34086;51.076;13.722;2024-03-22T01:48:02;9.00;99.90
48264;DHT22;34086;51.076;13.722;2024-03-22T01:49:04;9.00;99.90
48264;DHT22;34086;51.076;13.722;2024-03-22T01:50:04;9.00;99.90
48264;DHT22;34086;51.076;13.722;2024-03-22T01:51:06;9.00;99.90
48264;DHT22;34086;51.076;13.722;2024-03-22T01:52:07;9.00;99.90
48264;DHT22;34086;51.076;13.722;2024-03-22T01:53:07;9.00;99.90
48264;DHT22;34086;51.076;13.722;2024-03-22T01:54:08;9.00;99.90
48264;DHT22;34086;51.076;13.722;2024-03-22T01:55:09;9.10;99.90
48264;DHT22;34086;51.076;13.722;2024-03-22T01:56:10;9.10;99.90
48264;DHT22;34086;51.076;13.722;2024-03-22T01:57:10;9.00;99.90
48264;DHT22;34086;51.076;13.722;2024-03-22T01:58:11;9.00;99.90
48264;DHT22;34086;51.076;13.722;2024-03-22T01:59:13;9.00;99.90
48264;DHT22;34086;51.076;13.722;2024-03-22T02:00:14;9.00;99.90
48264;DHT22;34086;51.076;13.722;2024-03-22T02:01:14;9.00;99.90
48264;DHT22;34086;51.076;13.722;2024-03-22T02:02:15;9.00;99.90
48264;DHT22;34086;51.076;13.722;2024-03-22T02:03:15;9.00;99.90
48264;DHT22;34086;51.076;13.722;2024-03-22T02:04:16;9.00;99.90
48264;DHT22;34086;51.076;13.722;2024-03-22T02:05:17;9.10;99.90
48264;DHT22;34086;51.076;13.722;2024-03-22T02:06:21;9.00;99.90
48264;DHT22;34086;51.076;13.722;2024-03-22T02:07:22;9.00;99.90
48264;DHT22;34086;51.076;13.722;2024-03-22T02:08:22;9.00;99.90
48264;DHT22;34086;51.076;13.722;2024-03-22T02:09:23;9.00;99.90
48264;DHT22;34086;51.076;13.722;2024-03-22T02:10:23;9.00;99.90
48264;DHT22;34086;51.076;13.722;2024-03-22T02:11:24;9.00;99.90
48264;DHT22;34086;51.076;13.722;2024-03-22T02:12:25;9.00;99.90
48264;DHT22;34086;51.076;13.722;2024-03-22T02:13:26;9.00;99.90
48264;DHT22;34086;51.076;13.722;2024-03-22T02:14:26;9.00;99.90
48264;DHT22;34086;51.076;13.722;2024-03-22T02:15:27;9.00;99.90
48264;DHT22;34086;51.076;13.722;2024-03-22T02:16:27;9.00;99.90
48264;DHT22;34086;51.076;13.722;2024-03-22T02:17:28;9.00;99.90
48264;DHT22;34086;51.076;13.722;2024-03-22T02:18:28;9.00;99.90
48264;DHT22;34086;51.076;13.722;2024-03-22T02:19:29;9.00;99.90
48264;DHT22;34086;51.076;13.722;2024-03-22T02:20:29;9.00;99.90
48264;DHT22;34086;51.076;13.722;2024-03-22T02:21:30;9.00;99.90
48264;DHT22;34086;51.076;13.722;2024-03-22T02:22:30;8.90;99.90
48264;DHT22;34086;51.076;13.722;2024-03-22T02:23:34;8.90;99.90
48264;DHT22;34086;51.076;13.722;2024-03-22T02:24:35;8.90;99.90
48264;DHT22;34086;51.076;13.722;2024-03-22T02:25:35;8.90;99.90
48264;DHT22;34086;51.076;13.722;2024-03-22T02:26:36;8.90;99.90
48264;DHT22;34086;51.076;13.722;2024-03-22T02:27:37;8.80;99.90
48264;DHT22;34086;51.076;13.722;2024-03-22T02:28:38;8.90;99.90
48264;DHT22;34086;51.076;13.722;2024-03-22T02:29:38;8.80;99.90
48264;DHT22;34086;51.076;13.722;2024-03-22T02:30:39;8.80;99.90
48264;DHT22;34086;51.076;13.722;2024-03-22T02:31:39;8.80;99.90
48264;DHT22;34086;51.076;13.722;2024-03-22T02:32:40;8.80;99.90
48264;DHT22;34086;51.076;13.722;2024-03-22T02:33:40;8.80;99.90
48264;DHT22;34086;51.076;13.722;2024-03-22T02:34:41;8.80;99.90
48264;DHT22;34086;51.076;13.722;2024-03-22T02:35:42;8.80;99.90
48264;DHT22;34086;51.076;13.722;2024-03-22T02:36:42;8.80;99.90
48264;DHT22;34086;51.076;13.722;2024-03-22T02:37:42;8.80;99.90
48264;DHT22;34086;51.076;13.722;2024-03-22T02:38:43;8.80;99.90
48264;DHT22;34086;51.076;13.722;2024-03-22T02:39:43;8.80;99.90
48264;DHT22;34086;51.076;13.722;2024-03-22T02:40:44;8.80;99.90
48264;DHT22;34086;51.076;13.722;2024-03-22T02:41:45;8.80;99.90
48264;DHT22;34086;51.076;13.722;2024-03-22T02:42:45;8.80;99.90
48264;DHT22;34086;51.076;13.722;2024-03-22T02:43:46;8.70;99.90
48264;DHT22;34086;51.076;13.722;2024-03-22T02:44:46;8.70;99.90
48264;DHT22;34086;51.076;13.722;2024-03-22T02:45:47;8.70;99.90
48264;DHT22;34086;51.076;13.722;2024-03-22T02:46:47;8.70;99.90
48264;DHT22;34086;51.076;13.722;2024-03-22T02:47:48;8.70;99.90
48264;DHT22;34086;51.076;13.722;2024-03-22T02:48:48;8.70;99.90
48264;DHT22;34086;51.076;13.722;2024-03-22T02:49:49;8.70;99.90
48264;DHT22;34086;51.076;13.722;2024-03-22T02:50:49;8.80;99.90
48264;DHT22;34086;51.076;13.722;2024-03-22T02:51:55;8.80;99.90
48264;DHT22;34086;51.076;13.722;2024-03-22T02:52:55;8.80;99.90
48264;DHT22;34086;51.076;13.722;2024-03-22T02:53:56;8.80;99.90
48264;DHT22;34086;51.076;13.722;2024-03-22T02:54:56;8.70;99.90
48264;DHT22;34086;51.076;13.722;2024-03-22T02:55:59;8.80;99.90
48264;DHT22;34086;51.076;13.722;2024-03-22T02:56:59;8.80;99.90
48264;DHT22;34086;51.076;13.722;2024-03-22T02:58:02;8.70;99.90
48264;DHT22;34086;51.076;13.722;2024-03-22T02:59:03;8.70;99.90
48264;DHT22;34086;51.076;13.722;2024-03-22T03:00:03;8.70;99.90
48264;DHT22;34086;51.076;13.722;2024-03-22T03:01:05;8.80;99.90
48264;DHT22;34086;51.076;13.722;2024-03-22T03:02:06;8.70;99.90
48264;DHT22;34086;51.076;13.722;2024-03-22T03:03:06;8.70;99.90
48264;DHT22;34086;51.076;13.722;2024-03-22T03:04:07;8.70;99.90
48264;DHT22;34086;51.076;13.722;2024-03-22T03:05:07;8.70;99.90
48264;DHT22;34086;51.076;13.722;2024-03-22T03:06:08;8.70;99.90
48264;DHT22;34086;51.076;13.722;2024-03-22T03:07:09;8.70;99.90
48264;DHT22;34086;51.076;13.722;2024-03-22T03:08:10;8.70;99.90
48264;DHT22;34086;51.076;13.722;2024-03-22T03:09:10;8.70;99.90
48264;DHT22;34086;51.076;13.722;2024-03-22T03:10:11;8.70;99.90
48264;DHT22;34086;51.076;13.722;2024-03-22T03:11:11;8.70;99.90
48264;DHT22;34086;51.076;13.722;2024-03-22T03:12:12;8.60;99.90
48264;DHT22;34086;51.076;13.722;2024-03-22T03:13:12;8.60;99.90
48264;DHT22;34086;51.076;13.722;2024-03-22T03:14:13;8.60;99.90
48264;DHT22;34086;51.076;13.722;2024-03-22T03:15:13;8.70;99.90
48264;DHT22;34086;51.076;13.722;2024-03-22T03:16:14;8.70;99.90
48264;DHT22;34086;51.076;13.722;2024-03-22T03:17:14;8.70;99.90
48264;DHT22;34086;51.076;13.722;2024-03-22T03:18:15;8.60;99.90
48264;DHT22;34086;51.076;13.722;2024-03-22T03:19:15;8.60;99.90
48264;DHT22;34086;51.076;13.722;2024-03-22T03:20:17;8.70;99.90
48264;DHT22;34086;51.076;13.722;2024-03-22T03:21:18;8.70;99.90
48264;DHT22;34086;51.076;13.722;2024-03-22T03:22:18;8.70;99.90
48264;DHT22;34086;51.076;13.722;2024-03-22T03:23:18;8.70;99.90
48264;DHT22;34086;51.076;13.722;2024-03-22T03:24:19;8.70;99.90
48264;DHT22;34086;51.076;13.722;2024-03-22T03:25:19;8.70;99.90
48264;DHT22;34086;51.076;13.722;2024-03-22T03:26:20;8.70;99.90
48264;DHT22;34086;51.076;13.722;2024-03-22T03:27:20;8.70;99.90
48264;DHT22;34086;51.076;13.722;2024-03-22T03:28:21;8.70;99.90
48264;DHT22;34086;51.076;13.722;2024-03-22T03:29:21;8.60;99.90
48264;DHT22;34086;51.076;13.722;2024-03-22T03:30:22;8.60;99.90
48264;DHT22;34086;51.076;13.722;2024-03-22T03:31:22;8.60;99.90
48264;DHT22;34086;51.076;13.722;2024-03-22T03:32:23;8.70;99.90
48264;DHT22;34086;51.076;13.722;2024-03-22T03:33:24;8.60;99.90
48264;DHT22;34086;51.076;13.722;2024-03-22T03:34:25;8.60;99.90
48264;DHT22;34086;51.076;13.722;2024-03-22T03:35:25;8.60;99.90
48264;DHT22;34086;51.076;13.722;2024-03-22T03:36:27;8.60;99.90
48264;DHT22;34086;51.076;13.722;2024-03-22T03:37:27;8.60;99.90
48264;DHT22;34086;51.076;13.722;2024-03-22T03:38:28;8.60;99.90
48264;DHT22;34086;51.076;13.722;2024-03-22T03:39:28;8.60;99.90
48264;DHT22;34086;51.076;13.722;2024-03-22T03:40:29;8.60;99.90
48264;DHT22;34086;51.076;13.722;2024-03-22T03:41:30;8.60;99.90
48264;DHT22;34086;51.076;13.722;2024-03-22T03:42:30;8.60;99.90
48264;DHT22;34086;51.076;13.722;2024-03-22T03:43:31;8.60;99.90
48264;DHT22;34086;51.076;13.722;2024-03-22T03:44:31;8.60;99.90
48264;DHT22;34086;51.076;13.722;2024-03-22T03:45:32;8.60;99.90
48264;DHT22;34086;51.076;13.722;2024-03-22T03:46:32;8.60;99.90
48264;DHT22;34086;51.076;13.722;2024-03-22T03:47:33;8.50;99.90
48264;DHT22;34086;51.076;13.722;2024-03-22T03:48:33;8.60;99.90
48264;DHT22;34086;51.076;13.722;2024-03-22T03:49:34;8.60;99.90
48264;DHT22;34086;51.076;13.722;2024-03-22T03:50:34;8.50;99.90
48264;DHT22;34086;51.076;13.722;2024-03-22T03:51:35;8.50;99.90
48264;DHT22;34086;51.076;13.722;2024-03-22T03:52:35;8.50;99.90
48264;DHT22;34086;51.076;13.722;2024-03-22T03:53:36;8.50;99.90
48264;DHT22;34086;51.076;13.722;2024-03-22T03:54:36;8.50;99.90
48264;DHT22;34086;51.076;13.722;2024-03-22T03:55:37;8.60;99.90
48264;DHT22;34086;51.076;13.722;2024-03-22T03:56:37;8.60;99.90
48264;DHT22;34086;51.076;13.722;2024-03-22T03:57:38;8.50;99.90
48264;DHT22;34086;51.076;13.722;2024-03-22T03:58:38;8.60;99.90
48264;DHT22;34086;51.076;13.722;2024-03-22T03:59:39;8.60;99.90
48264;DHT22;34086;51.076;13.722;2024-03-22T04:00:39;8.60;99.90
48264;DHT22;34086;51.076;13.722;2024-03-22T04:01:40;8.60;99.90
48264;DHT22;34086;51.076;13.722;2024-03-22T04:02:40;8.60;99.90
48264;DHT22;34086;51.076;13.722;2024-03-22T04:03:41;8.60;99.90
48264;DHT22;34086;51.076;13.722;2024-03-22T04:04:41;8.60;99.90
48264;DHT22;34086;51.076;13.722;2024-03-22T04:05:41;8.60;99.90
48264;DHT22;34086;51.076;13.722;2024-03-22T04:06:43;8.60;99.90
48264;DHT22;34086;51.076;13.722;2024-03-22T04:07:46;8.50;99.90
48264;DHT22;34086;51.076;13.722;2024-03-22T04:08:47;8.50;99.90
48264;DHT22;34086;51.076;13.722;2024-03-22T04:09:47;8.50;99.90
48264;DHT22;34086;51.076;13.722;2024-03-22T04:10:51;8.50;99.90
48264;DHT22;34086;51.076;13.722;2024-03-22T04:11:52;8.50;99.90
48264;DHT22;34086;51.076;13.722;2024-03-22T04:12:52;8.50;99.90
48264;DHT22;34086;51.076;13.722;2024-03-22T04:13:53;8.50;99.90
48264;DHT22;34086;51.076;13.722;2024-03-22T04:14:53;8.50;99.90
48264;DHT22;34086;51.076;13.722;2024-03-22T04:15:53;8.50;99.90
48264;DHT22;34086;51.076;13.722;2024-03-22T04:16:54;8.50;99.90
48264;DHT22;34086;51.076;13.722;2024-03-22T04:17:56;8.50;99.90
48264;DHT22;34086;51.076;13.722;2024-03-22T04:18:56;8.50;99.90
48264;DHT22;34086;51.076;13.722;2024-03-22T04:19:57;8.40;99.90
48264;DHT22;34086;51.076;13.722;2024-03-22T04:20:58;8.40;99.90
48264;DHT22;34086;51.076;13.722;2024-03-22T04:21:59;8.40;99.90
48264;DHT22;34086;51.076;13.722;2024-03-22T04:22:59;8.40;99.90
48264;DHT22;34086;51.076;13.722;2024-03-22T04:24:00;8.40;99.90
48264;DHT22;34086;51.076;13.722;2024-03-22T04:25:00;8.40;99.90
48264;DHT22;34086;51.076;13.722;2024-03-22T04:26:01;8.40;99.90
48264;DHT22;34086;51.076;13.722;2024-03-22T04:27:02;8.40;99.90
48264;DHT22;34086;51.076;13.722;2024-03-22T04:28:02;8.40;99.90
48264;DHT22;34086;51.076;13.722;2024-03-22T04:29:03;8.40;99.90
48264;DHT22;34086;51.076;13.722;2024-03-22T04:30:03;8.40;99.90
48264;DHT22;34086;51.076;13.722;2024-03-22T04:31:04;8.40;99.90
48264;DHT22;34086;51.076;13.722;2024-03-22T04:32:05;8.40;99.90
48264;DHT22;34086;51.076;13.722;2024-03-22T04:33:06;8.40;99.90
48264;DHT22;34086;51.076;13.722;2024-03-22T04:34:07;8.40;99.90
48264;DHT22;34086;51.076;13.722;2024-03-22T04:35:07;8.40;99.90
48264;DHT22;34086;51.076;13.722;2024-03-22T04:36:08;8.40;99.90
48264;DHT22;34086;51.076;13.722;2024-03-22T04:37:11;8.40;99.90
48264;DHT22;34086;51.076;13.722;2024-03-22T04:38:12;8.40;99.90
48264;DHT22;34086;51.076;13.722;2024-03-22T04:39:12;8.40;99.90
48264;DHT22;34086;51.076;13.722;2024-03-22T04:40:14;8.40;99.90
48264;DHT22;34086;51.076;13.722;2024-03-22T04:41:14;8.40;99.90
48264;DHT22;34086;51.076;13.722;2024-03-22T04:42:15;8.40;99.90
48264;DHT22;34086;51.076;13.722;2024-03-22T04:43:16;8.40;99.90
48264;DHT22;34086;51.076;13.722;2024-03-22T04:44:17;8.40;99.90
48264;DHT22;34086;51.076;13.722;2024-03-22T04:45:17;8.40;99.90
48264;DHT22;34086;51.076;13.722;2024-03-22T04:46:18;8.40;99.90
48264;DHT22;34086;51.076;13.722;2024-03-22T04:47:19;8.30;99.90
48264;DHT22;34086;51.076;13.722;2024-03-22T04:48:21;8.30;99.90
48264;DHT22;34086;51.076;13.722;2024-03-22T04:49:21;8.30;99.90
48264;DHT22;34086;51.076;13.722;2024-03-22T04:50:22;8.30;99.90
48264;DHT22;34086;51.076;13.722;2024-03-22T04:51:23;8.30;99.90
48264;DHT22;34086;51.076;13.722;2024-03-22T04:52:23;8.30;99.90
48264;DHT22;34086;51.076;13.722;2024-03-22T04:53:24;8.30;99.90
48264;DHT22;34086;51.076;13.722;2024-03-22T04:54:24;8.30;99.90
48264;DHT22;34086;51.076;13.722;2024-03-22T04:55:25;8.20;99.90
48264;DHT22;34086;51.076;13.722;2024-03-22T04:56:25;8.20;99.90
48264;DHT22;34086;51.076;13.722;2024-03-22T04:57:26;8.20;99.90
48264;DHT22;34086;51.076;13.722;2024-03-22T04:58:26;8.10;99.90
48264;DHT22;34086;51.076;13.722;2024-03-22T04:59:27;8.10;99.90
48264;DHT22;34086;51.076;13.722;2024-03-22T05:00:28;8.10;99.90
48264;DHT22;34086;51.076;13.722;2024-03-22T05:01:28;8.10;99.90
48264;DHT22;34086;51.076;13.722;2024-03-22T05:02:29;8.20;99.90
48264;DHT22;34086;51.076;13.722;2024-03-22T05:03:29;8.10;99.90
48264;DHT22;34086;51.076;13.722;2024-03-22T05:04:30;8.10;99.90
48264;DHT22;34086;51.076;13.722;2024-03-22T05:05:30;8.10;99.90
48264;DHT22;34086;51.076;13.722;2024-03-22T05:06:31;8.20;99.90
48264;DHT22;34086;51.076;13.722;2024-03-22T05:07:31;8.10;99.90
48264;DHT22;34086;51.076;13.722;2024-03-22T05:08:32;8.10;99.90
48264;DHT22;34086;51.076;13.722;2024-03-22T05:09:32;8.10;99.90
48264;DHT22;34086;51.076;13.722;2024-03-22T05:10:33;8.10;99.90
48264;DHT22;34086;51.076;13.722;2024-03-22T05:11:34;8.10;99.90
48264;DHT22;34086;51.076;13.722;2024-03-22T05:12:34;8.10;99.90
48264;DHT22;34086;51.076;13.722;2024-03-22T05:13:35;8.10;99.90
48264;DHT22;34086;51.076;13.722;2024-03-22T05:14:35;8.10;99.90
48264;DHT22;34086;51.076;13.722;2024-03-22T05:15:36;8.20;99.90
48264;DHT22;34086;51.076;13.722;2024-03-22T05:16:36;8.20;99.90
48264;DHT22;34086;51.076;13.722;2024-03-22T05:17:37;8.20;99.90
48264;DHT22;34086;51.076;13.722;2024-03-22T05:18:39;8.30;99.90
48264;DHT22;34086;51.076;13.722;2024-03-22T05:19:40;8.30;99.90
48264;DHT22;34086;51.076;13.722;2024-03-22T05:20:40;8.30;99.90
48264;DHT22;34086;51.076;13.722;2024-03-22T05:21:41;8.30;99.90
48264;DHT22;34086;51.076;13.722;2024-03-22T05:22:41;8.30;99.90
48264;DHT22;34086;51.076;13.722;2024-03-22T05:23:42;8.40;99.90
48264;DHT22;34086;51.076;13.722;2024-03-22T05:24:43;8.40;99.90
48264;DHT22;34086;51.076;13.722;2024-03-22T05:25:43;8.40;99.90
48264;DHT22;34086;51.076;13.722;2024-03-22T05:26:44;8.40;99.90
48264;DHT22;34086;51.076;13.722;2024-03-22T05:27:44;8.40;99.90
48264;DHT22;34086;51.076;13.722;2024-03-22T05:28:45;8.50;99.90
48264;DHT22;34086;51.076;13.722;2024-03-22T05:29:45;8.50;99.90
48264;DHT22;34086;51.076;13.722;2024-03-22T05:30:46;8.60;99.90
48264;DHT22;34086;51.076;13.722;2024-03-22T05:31:48;8.70;99.90
48264;DHT22;34086;51.076;13.722;2024-03-22T05:32:48;8.70;99.90
48264;DHT22;34086;51.076;13.722;2024-03-22T05:33:50;8.60;99.90
48264;DHT22;34086;51.076;13.722;2024-03-22T05:34:51;8.70;99.90
48264;DHT22;34086;51.076;13.722;2024-03-22T05:35:51;8.70;99.90
48264;DHT22;34086;51.076;13.722;2024-03-22T05:36:52;8.60;99.90
48264;DHT22;34086;51.076;13.722;2024-03-22T05:37:52;8.70;99.90
48264;DHT22;34086;51.076;13.722;2024-03-22T05:38:53;8.70;99.90
48264;DHT22;34086;51.076;13.722;2024-03-22T05:39:54;8.70;99.90
48264;DHT22;34086;51.076;13.722;2024-03-22T05:40:55;8.70;99.90
48264;DHT22;34086;51.076;13.722;2024-03-22T05:41:55;8.80;99.90
48264;DHT22;34086;51.076;13.722;2024-03-22T05:42:55;8.80;99.90
48264;DHT22;34086;51.076;13.722;2024-03-22T05:43:56;8.80;99.90
48264;DHT22;34086;51.076;13.722;2024-03-22T05:44:57;8.80;99.90
48264;DHT22;34086;51.076;13.722;2024-03-22T05:45:57;8.90;99.90
48264;DHT22;34086;51.076;13.722;2024-03-22T05:46:58;8.90;99.90
48264;DHT22;34086;51.076;13.722;2024-03-22T05:47:58;8.90;99.90
48264;DHT22;34086;51.076;13.722;2024-03-22T05:48:59;9.00;99.90
48264;DHT22;34086;51.076;13.722;2024-03-22T05:49:59;9.00;99.90
48264;DHT22;34086;51.076;13.722;2024-03-22T05:51:00;9.00;99.90
48264;DHT22;34086;51.076;13.722;2024-03-22T05:52:01;9.00;99.90
48264;DHT22;34086;51.076;13.722;2024-03-22T05:53:01;9.00;99.90
48264;DHT22;34086;51.076;13.722;2024-03-22T05:54:02;8.90;99.90
48264;DHT22;34086;51.076;13.722;2024-03-22T05:55:03;9.00;99.90
48264;DHT22;34086;51.076;13.722;2024-03-22T05:56:03;9.00;99.90
48264;DHT22;34086;51.076;13.722;2024-03-22T05:57:04;9.00;99.90
48264;DHT22;34086;51.076;13.722;2024-03-22T05:58:08;9.00;99.90
48264;DHT22;34086;51.076;13.722;2024-03-22T05:59:09;9.00;99.90
48264;DHT22;34086;51.076;13.722;2024-03-22T06:00:10;9.00;99.90
48264;DHT22;34086;51.076;13.722;2024-03-22T06:01:13;9.00;99.90
48264;DHT22;34086;51.076;13.722;2024-03-22T06:02:14;9.00;99.90
48264;DHT22;34086;51.076;13.722;2024-03-22T06:03:15;9.10;99.90
48264;DHT22;34086;51.076;13.722;2024-03-22T06:04:15;9.00;99.90
48264;DHT22;34086;51.076;13.722;2024-03-22T06:05:16;9.00;99.90
48264;DHT22;34086;51.076;13.722;2024-03-22T06:06:17;9.10;99.90
48264;DHT22;34086;51.076;13.722;2024-03-22T06:07:18;9.10;99.90
48264;DHT22;34086;51.076;13.722;2024-03-22T06:08:19;9.10;99.90
48264;DHT22;34086;51.076;13.722;2024-03-22T06:09:20;9.20;99.90
48264;DHT22;34086;51.076;13.722;2024-03-22T06:10:24;9.20;99.90
48264;DHT22;34086;51.076;13.722;2024-03-22T06:11:25;9.20;99.90
48264;DHT22;34086;51.076;13.722;2024-03-22T06:12:25;9.20;99.90
48264;DHT22;34086;51.076;13.722;2024-03-22T06:13:26;9.20;99.90
48264;DHT22;34086;51.076;13.722;2024-03-22T06:14:26;9.20;99.90
48264;DHT22;34086;51.076;13.722;2024-03-22T06:15:28;9.30;99.90
48264;DHT22;34086;51.076;13.722;2024-03-22T06:16:28;9.30;99.90
48264;DHT22;34086;51.076;13.722;2024-03-22T06:17:29;9.30;99.90
48264;DHT22;34086;51.076;13.722;2024-03-22T06:18:29;9.30;99.90
48264;DHT22;34086;51.076;13.722;2024-03-22T06:19:30;9.40;99.90
48264;DHT22;34086;51.076;13.722;2024-03-22T06:20:30;9.40;99.90
48264;DHT22;34086;51.076;13.722;2024-03-22T06:21:31;9.40;99.90
48264;DHT22;34086;51.076;13.722;2024-03-22T06:22:31;9.50;99.90